首页
METAR-TAF:

METAR-TAF

机场 :

Springfield-Branson Regional Airport

斯普林菲尔德, 密蘇里州, 美国

纬度: 37-14-23N, 经度: 093-23-23W, 海拔: 386米

当前天气观测

该预报发布于31分钟前的08:52 UTC
风速5节,风向南转南东
温度 17°C
湿度 82%
气压 1022 hPa
能見度: 16.1公里
天空无云

METAR: KSGF 010852Z 16005KT 10SM CLR 17/14 A3018 RMK AO2 SLP211 T01670139 55003

时间: 04:23 (09:23 UTC)

预报

该预报发布于4小时和3分钟前的05:20 UTC
预报有效从01日的 06点(UTC)到 02日的 06点(UTC)
风速7节,风向南转南东
能見度: 10公里
散云层高于20000英尺
从 01日的 1500点(UTC)
风速13节,风向
能見度: 10公里
少量云层高于25000英尺
从 01日的 2300点(UTC)
风速9节,风向
能見度: 10公里
少量云层高于25000英尺

TAF: KSGF 010520Z 0106/0206 15007KT P6SM SCT200 FM011500 17013KT P6SM FEW250 FM012300 19009KT P6SM FEW250

超过4000个机场的气象观测和天气预报(METAR&TAF报告)。

可查询的气象台以黄色和红色小点在地图上表示。

将鼠标移到小点上方,可查看气象台名称。

然后点击查看天气观测和预报。

如需切换地图:点击带黑十字的绿色按钮放大地图;点击带横线的绿色按钮缩小地图;或者点击绿色箭头查看邻近地区的地图。


METAR-TAF: